createdAt,value
2023-03-14T00:01:31.617Z,1.10
2023-03-14T00:03:58.516Z,1.52
2023-03-14T00:06:25.791Z,1.40
2023-03-14T00:08:52.910Z,1.40
2023-03-14T00:11:21.767Z,1.60
2023-03-14T00:13:52.290Z,1.30
2023-03-14T00:16:20.282Z,1.30
2023-03-14T00:18:47.102Z,0.90
2023-03-14T00:21:14.255Z,2.60
2023-03-14T00:23:43.005Z,1.13
2023-03-14T00:26:15.926Z,1.33
2023-03-14T00:28:44.233Z,0.93
2023-03-14T00:31:13.729Z,1.02
2023-03-14T00:33:40.872Z,1.10
2023-03-14T00:36:11.183Z,1.40
2023-03-14T00:38:39.489Z,1.33
2023-03-14T00:41:12.815Z,0.90
2023-03-14T00:43:39.795Z,0.80
2023-03-14T00:46:07.497Z,1.42
2023-03-14T00:48:35.130Z,0.90
2023-03-14T00:51:04.126Z,1.17
2023-03-14T00:53:30.993Z,1.25
2023-03-14T00:56:03.223Z,1.70
2023-03-14T00:58:30.000Z,1.30
2023-03-14T01:00:56.798Z,2.03
2023-03-14T01:03:25.313Z,1.30
2023-03-14T01:05:52.130Z,1.60
2023-03-14T01:08:18.994Z,1.30
2023-03-14T01:10:45.825Z,1.58
2023-03-14T01:13:12.614Z,1.60
2023-03-14T01:15:39.426Z,1.80
2023-03-14T01:18:06.347Z,1.80
2023-03-14T01:20:33.412Z,1.63
2023-03-14T01:23:00.251Z,1.80
2023-03-14T01:25:27.292Z,1.80
2023-03-14T01:27:54.095Z,1.90
2023-03-14T01:30:20.987Z,1.60
2023-03-14T01:32:47.871Z,2.40
2023-03-14T01:35:14.720Z,2.10
2023-03-14T01:37:41.548Z,1.63
2023-03-14T01:40:11.335Z,1.70
2023-03-14T01:42:38.197Z,2.10
2023-03-14T01:45:05.403Z,1.80
2023-03-14T01:47:32.264Z,1.95
2023-03-14T01:50:09.133Z,1.63
2023-03-14T01:52:47.085Z,1.75
2023-03-14T01:55:20.160Z,1.60
2023-03-14T01:58:04.340Z,1.80
2023-03-14T02:00:31.307Z,1.10
2023-03-14T02:03:15.166Z,1.90
2023-03-14T02:05:42.999Z,1.50
2023-03-14T02:08:14.418Z,1.95
2023-03-14T02:10:45.414Z,2.03
2023-03-14T02:13:13.776Z,2.00
2023-03-14T02:15:41.450Z,1.67
2023-03-14T02:18:09.916Z,1.80
2023-03-14T02:21:15.769Z,1.48
2023-03-14T02:24:17.379Z,1.23
2023-03-14T02:27:08.655Z,1.50
2023-03-14T02:29:40.388Z,1.70
2023-03-14T02:32:08.571Z,1.83
2023-03-14T02:34:37.183Z,1.92
2023-03-14T02:37:05.901Z,1.30
2023-03-14T02:39:39.230Z,1.50
2023-03-14T02:42:06.116Z,1.45
2023-03-14T02:44:33.030Z,1.40
2023-03-14T02:47:00.277Z,1.17
2023-03-14T02:49:29.628Z,1.60
2023-03-14T02:51:56.519Z,1.42
2023-03-14T02:54:23.477Z,1.40
2023-03-14T02:56:50.282Z,1.52
2023-03-14T02:59:17.198Z,1.63
2023-03-14T03:01:44.109Z,1.40
2023-03-14T03:04:10.989Z,1.00
2023-03-14T03:06:37.803Z,0.98
2023-03-14T03:09:04.822Z,1.13
2023-03-14T03:11:32.647Z,1.40
2023-03-14T03:13:59.495Z,1.10
2023-03-14T03:16:26.369Z,1.20
2023-03-14T03:18:53.183Z,1.63
2023-03-14T03:21:26.344Z,1.38
2023-03-14T03:23:53.135Z,1.13
2023-03-14T03:26:19.969Z,1.50
2023-03-14T03:28:46.830Z,2.15
2023-03-14T03:31:13.830Z,1.75
2023-03-14T03:33:41.002Z,1.50
2023-03-14T03:36:08.916Z,1.92
2023-03-14T03:38:36.618Z,2.00
2023-03-14T03:41:05.849Z,1.60
2023-03-14T03:43:32.846Z,2.45
2023-03-14T03:45:59.699Z,1.67
2023-03-14T03:48:26.543Z,1.90
2023-03-14T03:50:53.539Z,2.40
2023-03-14T03:53:32.329Z,2.40
2023-03-14T03:56:00.328Z,3.72
2023-03-14T03:58:27.144Z,2.30
2023-03-14T04:00:53.984Z,2.47
2023-03-14T04:03:21.114Z,2.47
2023-03-14T04:05:48.064Z,2.70
2023-03-14T04:08:14.932Z,2.42
2023-03-14T04:10:41.874Z,2.63
2023-03-14T04:13:08.689Z,2.15
2023-03-14T04:15:35.526Z,2.20
2023-03-14T04:18:02.325Z,2.90
2023-03-14T04:20:29.174Z,2.58
2023-03-14T04:22:55.994Z,3.20
2023-03-14T04:25:22.974Z,3.00
2023-03-14T04:27:51.545Z,2.90
2023-03-14T04:30:20.071Z,2.83
2023-03-14T04:32:47.004Z,2.38
2023-03-14T04:35:13.808Z,2.47
2023-03-14T04:37:42.876Z,2.15
2023-03-14T04:40:10.689Z,2.20
2023-03-14T04:42:37.495Z,2.40
2023-03-14T04:45:04.715Z,3.08
2023-03-14T04:47:31.536Z,2.67
2023-03-14T04:49:58.380Z,2.63
2023-03-14T04:52:25.286Z,2.78
2023-03-14T04:54:52.269Z,2.58
2023-03-14T04:57:19.137Z,2.97
2023-03-14T04:59:45.990Z,2.75
2023-03-14T05:02:13.145Z,3.30
2023-03-14T05:04:39.950Z,2.90
2023-03-14T05:07:06.817Z,3.15
2023-03-14T05:09:33.656Z,3.92
2023-03-14T05:12:00.513Z,3.33
2023-03-14T05:14:27.411Z,2.88
2023-03-14T05:16:54.478Z,3.30
2023-03-14T05:19:21.289Z,3.17
2023-03-14T05:21:48.139Z,3.08
2023-03-14T05:24:15.115Z,3.33
2023-03-14T05:26:41.931Z,2.72
2023-03-14T05:29:08.806Z,3.22
2023-03-14T05:31:35.923Z,3.15
2023-03-14T05:34:02.728Z,3.63
2023-03-14T05:36:29.568Z,2.22
2023-03-14T05:38:56.461Z,2.38
2023-03-14T05:41:23.301Z,2.85
2023-03-14T05:43:50.117Z,2.55
2023-03-14T05:46:17.159Z,2.42
2023-03-14T05:48:44.008Z,2.83
2023-03-14T05:51:10.829Z,2.55
2023-03-14T05:53:37.838Z,2.90
2023-03-14T05:56:04.999Z,3.13
2023-03-14T05:58:31.840Z,3.60
2023-03-14T06:00:58.685Z,3.20
2023-03-14T06:03:25.548Z,3.45
2023-03-14T06:05:52.369Z,3.85
2023-03-14T06:08:19.246Z,4.13
2023-03-14T06:10:46.300Z,4.30
2023-03-14T06:13:13.125Z,3.92
2023-03-14T06:15:39.895Z,4.07
2023-03-14T06:18:06.725Z,4.43
2023-03-14T06:20:34.301Z,4.80
2023-03-14T06:23:01.453Z,5.00
2023-03-14T06:25:28.468Z,4.38
2023-03-14T06:27:55.290Z,5.15
2023-03-14T06:30:22.249Z,5.10
2023-03-14T06:32:49.148Z,3.03
2023-03-14T06:35:16.160Z,1.85
2023-03-14T06:37:43.109Z,1.10
2023-03-14T06:40:18.213Z,1.38
2023-03-14T06:42:48.402Z,1.48
2023-03-14T06:45:15.609Z,1.50
2023-03-14T06:47:42.478Z,1.40
2023-03-14T06:50:10.379Z,1.30
2023-03-14T06:52:38.070Z,1.65
2023-03-14T06:55:20.053Z,1.75
2023-03-14T06:57:48.064Z,1.83
2023-03-14T07:00:15.228Z,2.42
2023-03-14T07:02:43.442Z,2.90
2023-03-14T07:05:13.669Z,2.47
2023-03-14T07:07:40.510Z,2.40
2023-03-14T07:10:09.859Z,2.30
2023-03-14T07:12:37.000Z,2.17
2023-03-14T07:15:17.626Z,2.42
2023-03-14T07:17:45.638Z,2.35
2023-03-14T07:20:12.601Z,1.88
2023-03-14T07:22:39.342Z,2.63
2023-03-14T07:25:07.097Z,1.60
2023-03-14T07:27:33.908Z,1.25
2023-03-14T07:30:00.709Z,1.70
2023-03-14T07:32:27.724Z,1.52
2023-03-14T07:34:54.502Z,1.52
2023-03-14T07:37:21.308Z,1.50
2023-03-14T07:39:48.154Z,1.73
2023-03-14T07:42:14.985Z,1.20
2023-03-14T07:44:41.777Z,1.38
2023-03-14T07:47:08.574Z,1.50
2023-03-14T07:49:35.418Z,1.33
2023-03-14T07:52:02.222Z,1.70
2023-03-14T07:54:29.259Z,1.60
2023-03-14T07:56:56.031Z,2.00
2023-03-14T07:59:22.878Z,1.50
2023-03-14T08:01:49.702Z,1.77
2023-03-14T08:04:16.520Z,2.38
2023-03-14T08:06:43.498Z,1.92
2023-03-14T08:09:10.384Z,1.50
2023-03-14T08:11:37.418Z,2.17
2023-03-14T08:14:04.211Z,1.42
2023-03-14T08:16:31.145Z,1.40
2023-03-14T08:18:58.482Z,1.70
2023-03-14T08:21:25.352Z,1.25
2023-03-14T08:23:52.286Z,0.95
2023-03-14T08:26:19.106Z,1.05
2023-03-14T08:28:45.889Z,1.08
2023-03-14T08:31:12.950Z,1.27
2023-03-14T08:33:39.822Z,0.88
2023-03-14T08:36:07.140Z,1.35
2023-03-14T08:38:34.083Z,0.98
2023-03-14T08:41:02.665Z,0.75
2023-03-14T08:43:30.170Z,1.27
2023-03-14T08:46:01.424Z,1.15
2023-03-14T08:48:30.604Z,2.53
2023-03-14T08:50:58.468Z,1.10
2023-03-14T08:53:25.427Z,1.15
2023-03-14T08:55:55.677Z,2.00
2023-03-14T08:58:24.684Z,1.15
2023-03-14T09:00:51.907Z,1.30
2023-03-14T09:03:19.088Z,1.00
2023-03-14T09:05:46.005Z,1.33
2023-03-14T09:08:12.879Z,0.90
2023-03-14T09:10:39.688Z,1.10
2023-03-14T09:13:06.617Z,0.80
2023-03-14T09:15:34.149Z,1.00
2023-03-14T09:18:01.018Z,0.65
2023-03-14T09:20:28.235Z,0.57
2023-03-14T09:22:55.527Z,0.60
2023-03-14T09:25:22.317Z,0.52
2023-03-14T09:27:49.081Z,0.60
2023-03-14T09:30:15.949Z,0.68
2023-03-14T09:32:42.779Z,0.50
2023-03-14T09:35:10.874Z,0.70
2023-03-14T09:37:37.811Z,0.80
2023-03-14T09:40:11.253Z,0.60
2023-03-14T09:42:40.341Z,0.40
2023-03-14T09:45:13.706Z,1.00
2023-03-14T09:47:56.450Z,0.70
2023-03-14T09:50:27.375Z,0.60
2023-03-14T09:53:00.408Z,0.52
2023-03-14T09:55:27.263Z,0.90
2023-03-14T09:58:00.528Z,0.70
2023-03-14T10:00:30.373Z,1.38
2023-03-14T10:03:15.230Z,1.10
2023-03-14T10:05:42.976Z,1.17
2023-03-14T10:08:14.414Z,1.40
2023-03-14T10:10:41.947Z,2.58
2023-03-14T10:13:30.429Z,2.42
2023-03-14T10:16:01.890Z,1.65
2023-03-14T10:18:31.462Z,2.13
2023-03-14T10:21:12.698Z,1.27
2023-03-14T10:23:40.363Z,1.38
2023-03-14T10:26:28.004Z,1.40
2023-03-14T10:29:11.402Z,1.10
2023-03-14T10:31:49.704Z,1.48
2023-03-14T10:34:26.772Z,0.90
2023-03-14T10:36:55.486Z,0.90
2023-03-14T10:39:27.362Z,0.90
2023-03-14T10:42:00.011Z,1.33
2023-03-14T10:44:27.310Z,1.10
2023-03-14T10:47:02.992Z,1.05
2023-03-14T10:49:37.570Z,1.20
2023-03-14T10:52:46.043Z,1.20
2023-03-14T10:55:15.984Z,1.20
2023-03-14T10:57:43.578Z,1.77
2023-03-14T11:00:18.145Z,1.55
2023-03-14T11:02:48.125Z,0.80
2023-03-14T11:05:14.852Z,0.80
2023-03-14T11:07:43.803Z,1.40
2023-03-14T11:10:26.848Z,1.52
2023-03-14T11:13:03.752Z,1.55
2023-03-14T11:15:53.454Z,1.25
2023-03-14T11:18:32.616Z,1.50
2023-03-14T11:21:27.286Z,1.63
2023-03-14T11:24:02.845Z,1.63
2023-03-14T11:26:54.674Z,1.63
2023-03-14T11:29:46.352Z,1.75
2023-03-14T11:32:23.367Z,2.55
2023-03-14T11:34:50.247Z,1.42
2023-03-14T11:37:16.995Z,2.20
2023-03-14T11:39:54.895Z,2.03
2023-03-14T11:42:22.938Z,1.65
2023-03-14T11:44:50.567Z,2.50
2023-03-14T11:47:40.201Z,2.28
2023-03-14T11:50:22.171Z,2.88
2023-03-14T11:52:54.823Z,2.88
2023-03-14T11:58:02.356Z,2.13
2023-03-14T12:00:31.613Z,2.60
2023-03-14T12:03:40.954Z,2.58
2023-03-14T12:06:33.629Z,3.40
2023-03-14T12:09:06.427Z,2.83
2023-03-14T12:11:45.933Z,2.38
2023-03-14T12:14:27.461Z,2.42
2023-03-14T12:16:59.237Z,2.85
2023-03-14T12:19:30.216Z,2.50
2023-03-14T12:21:57.050Z,2.95
2023-03-14T12:24:33.365Z,2.35
2023-03-14T12:27:02.954Z,3.58
2023-03-14T12:29:31.224Z,3.30
2023-03-14T12:32:25.754Z,3.22
2023-03-14T12:34:52.769Z,3.35
2023-03-14T12:37:24.763Z,3.35
2023-03-14T12:39:54.398Z,3.22
2023-03-14T12:42:44.039Z,2.90
2023-03-14T12:45:24.271Z,4.50
2023-03-14T12:47:51.029Z,3.92
2023-03-14T12:50:30.496Z,3.08
2023-03-14T12:53:10.730Z,3.83
2023-03-14T12:55:55.236Z,2.83
2023-03-14T12:58:36.128Z,2.95
2023-03-14T13:01:06.044Z,3.05
2023-03-14T13:03:48.106Z,3.33
2023-03-14T13:06:52.227Z,2.22
2023-03-14T13:09:53.068Z,2.45
2023-03-14T13:12:28.908Z,2.67
2023-03-14T13:14:58.541Z,2.33
2023-03-14T13:17:36.814Z,2.58
2023-03-14T13:20:15.939Z,1.95
2023-03-14T13:22:47.977Z,2.15
2023-03-14T13:25:14.818Z,2.63
2023-03-14T13:27:42.756Z,2.88
2023-03-14T13:30:20.812Z,1.50
2023-03-14T13:32:49.970Z,1.52
2023-03-14T13:35:23.694Z,1.15
2023-03-14T13:38:10.707Z,1.35
2023-03-14T13:40:39.296Z,1.73
2023-03-14T13:43:15.011Z,1.00
2023-03-14T13:46:07.299Z,1.60
2023-03-14T13:48:41.268Z,1.30
2023-03-14T13:51:11.771Z,1.95
2023-03-14T13:53:53.906Z,1.27
2023-03-14T13:56:26.617Z,1.65
2023-03-14T13:58:53.497Z,2.22
2023-03-14T14:01:35.013Z,1.85
2023-03-14T14:04:17.071Z,1.92
2023-03-14T14:06:59.109Z,1.63
2023-03-14T14:09:32.060Z,1.35
2023-03-14T14:12:17.667Z,0.50
2023-03-14T14:14:57.160Z,0.57
2023-03-14T14:17:41.102Z,0.73
2023-03-14T14:20:39.417Z,0.82
2023-03-14T14:23:11.946Z,1.15
2023-03-14T14:25:39.315Z,1.00
2023-03-14T14:28:22.565Z,0.60
2023-03-14T14:31:01.416Z,0.40
2023-03-14T14:33:28.532Z,0.50
2023-03-14T14:35:58.478Z,0.43
2023-03-14T14:38:26.121Z,0.57
2023-03-14T14:40:56.946Z,0.60
2023-03-14T14:43:27.519Z,0.60
2023-03-14T14:45:57.021Z,0.80
2023-03-14T14:48:26.089Z,0.70
2023-03-14T14:51:03.113Z,0.93
2023-03-14T14:53:37.907Z,1.58
2023-03-14T14:56:08.974Z,1.48
2023-03-14T14:58:40.756Z,2.00
2023-03-14T15:01:20.126Z,1.33
2023-03-14T15:03:50.613Z,1.23
2023-03-14T15:06:18.535Z,1.23
2023-03-14T15:08:47.989Z,1.63
2023-03-14T15:11:20.106Z,1.52
2023-03-14T15:13:47.053Z,1.40
2023-03-14T15:16:16.856Z,1.42
2023-03-14T15:18:46.543Z,1.45
2023-03-14T15:21:13.323Z,1.75
2023-03-14T15:23:40.281Z,1.20
2023-03-14T15:26:15.326Z,2.20
2023-03-14T15:28:42.264Z,2.25
2023-03-14T15:31:11.520Z,2.10
2023-03-14T15:33:38.687Z,1.77
2023-03-14T15:36:07.872Z,1.88
2023-03-14T15:38:34.678Z,1.90
2023-03-14T15:41:01.769Z,1.52
2023-03-14T15:43:28.618Z,2.10
2023-03-14T15:45:57.001Z,1.60
2023-03-14T15:48:23.879Z,1.52
2023-03-14T15:50:50.786Z,1.70
2023-03-14T15:53:17.729Z,1.73
2023-03-14T15:55:44.574Z,1.77
2023-03-14T15:58:20.671Z,1.35
2023-03-14T16:00:49.223Z,1.77
2023-03-14T16:03:16.530Z,1.25
2023-03-14T16:05:43.359Z,1.38
2023-03-14T16:08:10.380Z,1.33
2023-03-14T16:10:37.423Z,1.05
2023-03-14T16:13:04.404Z,1.25
2023-03-14T16:15:31.350Z,1.80
2023-03-14T16:17:59.699Z,1.40
2023-03-14T16:20:31.343Z,1.55
2023-03-14T16:23:03.108Z,1.70
2023-03-14T16:25:30.536Z,1.60
2023-03-14T16:28:10.411Z,1.65
2023-03-14T16:30:38.272Z,1.77
2023-03-14T16:33:12.212Z,1.98
2023-03-14T16:35:40.764Z,2.10
2023-03-14T16:38:07.921Z,1.75
2023-03-14T16:40:34.999Z,1.45
2023-03-14T16:43:15.660Z,1.48
2023-03-14T16:45:43.184Z,1.77
2023-03-14T16:48:10.024Z,1.80
2023-03-14T16:50:37.109Z,1.73
2023-03-14T16:53:03.876Z,1.70
2023-03-14T16:55:30.712Z,2.03
2023-03-14T16:57:57.511Z,1.92
2023-03-14T17:00:24.348Z,1.33
2023-03-14T17:02:51.189Z,2.15
2023-03-14T17:05:18.506Z,1.65
2023-03-14T17:07:45.813Z,1.38
2023-03-14T17:10:12.825Z,1.88
2023-03-14T17:12:39.605Z,1.73
2023-03-14T17:15:06.963Z,1.55
2023-03-14T17:17:34.034Z,2.20
2023-03-14T17:20:00.896Z,1.73
2023-03-14T17:22:31.720Z,2.25
2023-03-14T17:25:01.687Z,1.63
2023-03-14T17:27:29.026Z,1.75
2023-03-14T17:29:56.007Z,1.48
2023-03-14T17:32:23.112Z,1.83
2023-03-14T17:34:49.921Z,1.38
2023-03-14T17:37:16.727Z,1.63
2023-03-14T17:39:43.632Z,1.55
2023-03-14T17:42:10.615Z,2.03
2023-03-14T17:44:37.506Z,1.80
2023-03-14T17:47:04.419Z,1.70
2023-03-14T17:49:31.226Z,1.63
2023-03-14T17:51:58.092Z,1.65
2023-03-14T17:54:25.089Z,1.42
2023-03-14T17:56:51.904Z,1.60
2023-03-14T17:59:18.708Z,1.58
2023-03-14T18:01:45.646Z,1.45
2023-03-14T18:04:13.833Z,1.58
2023-03-14T18:06:44.658Z,1.70
2023-03-14T18:09:11.678Z,1.40
2023-03-14T18:11:38.594Z,1.73
2023-03-14T18:14:07.876Z,1.60
2023-03-14T18:16:35.846Z,1.45
2023-03-14T18:19:02.882Z,1.55
2023-03-14T18:21:30.262Z,1.58
2023-03-14T18:23:57.184Z,1.60
2023-03-14T18:26:25.571Z,1.80
2023-03-14T18:28:52.402Z,2.00
2023-03-14T18:31:22.649Z,1.60
2023-03-14T18:33:49.723Z,2.00
2023-03-14T18:36:17.125Z,2.00
2023-03-14T18:38:46.127Z,2.25
2023-03-14T18:41:15.730Z,2.20
2023-03-14T18:43:43.203Z,2.38
2023-03-14T18:46:11.783Z,2.30
2023-03-14T18:48:42.607Z,3.85
2023-03-14T18:51:12.343Z,2.30
2023-03-14T18:53:39.865Z,2.10
2023-03-14T18:56:07.087Z,2.28
2023-03-14T18:58:34.577Z,1.98
2023-03-14T19:01:03.610Z,1.98
2023-03-14T19:03:33.284Z,2.33
2023-03-14T19:06:00.739Z,2.75
2023-03-14T19:08:28.373Z,2.90
2023-03-14T19:11:01.116Z,2.95
2023-03-14T19:13:27.998Z,2.35
2023-03-14T19:15:55.085Z,2.42
2023-03-14T19:18:22.054Z,2.30
2023-03-14T19:21:05.156Z,2.55
2023-03-14T19:23:33.743Z,2.50
2023-03-14T19:26:02.956Z,2.05
2023-03-14T19:28:30.204Z,2.05
2023-03-14T19:30:57.045Z,2.40
2023-03-14T19:33:24.087Z,2.20
2023-03-14T19:35:51.646Z,2.30
2023-03-14T19:38:18.626Z,3.63
2023-03-14T19:40:46.208Z,3.15
2023-03-14T19:43:13.483Z,3.22
2023-03-14T19:45:42.732Z,3.42
2023-03-14T19:48:12.748Z,2.53
2023-03-14T19:50:39.800Z,3.17
2023-03-14T19:53:08.237Z,4.13
2023-03-14T19:55:35.278Z,3.15
2023-03-14T19:58:02.406Z,3.00
2023-03-14T20:00:29.539Z,3.00
2023-03-14T20:02:56.598Z,2.97
2023-03-14T20:05:24.581Z,2.97
2023-03-14T20:07:51.950Z,3.90
2023-03-14T20:10:23.022Z,3.42
2023-03-14T20:12:51.202Z,3.50
2023-03-14T20:15:19.593Z,3.97
2023-03-14T20:17:47.936Z,3.45
2023-03-14T20:20:15.846Z,3.40
2023-03-14T20:22:42.763Z,3.03
2023-03-14T20:25:13.009Z,4.10
2023-03-14T20:27:41.466Z,3.80
2023-03-14T20:30:12.820Z,3.75
2023-03-14T20:32:43.438Z,4.28
2023-03-14T20:35:12.278Z,4.00
2023-03-14T20:37:40.030Z,4.03
2023-03-14T20:40:07.692Z,3.80
2023-03-14T20:42:34.903Z,3.70
2023-03-14T20:45:02.375Z,3.80
2023-03-14T20:47:29.392Z,3.92
2023-03-14T20:49:56.384Z,4.63
2023-03-14T20:52:23.189Z,5.10
2023-03-14T20:54:50.177Z,5.72
2023-03-14T20:57:17.052Z,5.40
2023-03-14T20:59:44.120Z,5.38
2023-03-14T21:02:11.613Z,5.07
2023-03-14T21:04:39.132Z,6.22
2023-03-14T21:07:06.035Z,5.85
2023-03-14T21:09:33.885Z,5.03
2023-03-14T21:12:01.715Z,5.10
2023-03-14T21:14:28.636Z,4.45
2023-03-14T21:17:00.378Z,5.90
2023-03-14T21:19:30.828Z,5.00
2023-03-14T21:21:59.220Z,5.40
2023-03-14T21:24:26.644Z,4.68
2023-03-14T21:26:54.098Z,4.90
2023-03-14T21:29:21.682Z,5.63
2023-03-14T21:31:49.905Z,5.00
2023-03-14T21:34:17.750Z,4.72
2023-03-14T21:36:44.593Z,4.60
2023-03-14T21:39:11.558Z,5.32
2023-03-14T21:41:38.518Z,7.25
2023-03-14T21:44:05.372Z,5.57
2023-03-14T21:46:32.327Z,5.22
2023-03-14T21:48:59.163Z,4.35
2023-03-14T21:51:30.016Z,6.40
2023-03-14T21:53:57.533Z,4.35
2023-03-14T21:56:27.085Z,5.03
2023-03-14T21:58:59.303Z,4.65
2023-03-14T22:01:26.159Z,4.30
2023-03-14T22:03:53.650Z,4.10
2023-03-14T22:06:20.948Z,4.07
2023-03-14T22:08:47.803Z,4.30
2023-03-14T22:11:14.691Z,3.80
2023-03-14T22:13:41.596Z,4.78
2023-03-14T22:16:09.224Z,4.78
2023-03-14T22:18:36.109Z,5.28
2023-03-14T22:21:02.976Z,5.15
2023-03-14T22:23:29.867Z,4.88
2023-03-14T22:25:56.666Z,4.68
2023-03-14T22:28:23.519Z,4.85
2023-03-14T22:30:51.557Z,5.32
2023-03-14T22:33:19.365Z,5.82
2023-03-14T22:35:50.683Z,5.10
2023-03-14T22:38:17.834Z,5.38
2023-03-14T22:40:44.875Z,5.50
2023-03-14T22:43:11.826Z,5.40
2023-03-14T22:45:38.765Z,6.60
2023-03-14T22:48:05.839Z,4.30
2023-03-14T22:50:32.733Z,4.93
2023-03-14T22:52:59.577Z,5.53
2023-03-14T22:55:26.456Z,4.35
2023-03-14T22:57:53.714Z,3.92
2023-03-14T23:00:21.180Z,3.30
2023-03-14T23:02:48.274Z,3.00
2023-03-14T23:05:15.253Z,3.03
2023-03-14T23:07:42.242Z,2.65
2023-03-14T23:10:10.312Z,2.78
2023-03-14T23:12:37.313Z,3.40
2023-03-14T23:15:07.250Z,3.28
2023-03-14T23:17:34.533Z,4.28
2023-03-14T23:20:01.801Z,3.97
2023-03-14T23:22:32.727Z,4.35
2023-03-14T23:25:00.976Z,4.80
2023-03-14T23:27:28.103Z,4.53
2023-03-14T23:29:54.892Z,4.50
2023-03-14T23:32:21.814Z,4.60
2023-03-14T23:34:48.890Z,4.75
2023-03-14T23:37:15.662Z,4.15
2023-03-14T23:39:46.094Z,4.57
2023-03-14T23:42:13.667Z,4.25
2023-03-14T23:44:40.824Z,4.85
2023-03-14T23:47:08.259Z,4.90
2023-03-14T23:49:35.337Z,4.28
2023-03-14T23:52:02.207Z,4.68
2023-03-14T23:54:29.002Z,4.95
2023-03-14T23:56:55.826Z,4.93
2023-03-14T23:59:22.618Z,4.47
